sensor_id;sensor_type;location;lat;lon;timestamp;P1;durP1;ratioP1;P2;durP2;ratioP2
20067;SDS011;10194;50.824;7.134;2022-10-17T00:01:59;175.33;;;99.37;;
20067;SDS011;10194;50.824;7.134;2022-10-17T00:04:25;175.07;;;102.17;;
20067;SDS011;10194;50.824;7.134;2022-10-17T00:06:51;170.90;;;95.13;;
20067;SDS011;10194;50.824;7.134;2022-10-17T00:09:17;174.73;;;99.37;;
20067;SDS011;10194;50.824;7.134;2022-10-17T00:11:42;167.57;;;97.40;;
20067;SDS011;10194;50.824;7.134;2022-10-17T00:14:08;174.03;;;98.10;;
20067;SDS011;10194;50.824;7.134;2022-10-17T00:16:35;171.97;;;97.40;;
20067;SDS011;10194;50.824;7.134;2022-10-17T00:19:02;171.00;;;98.70;;
20067;SDS011;10194;50.824;7.134;2022-10-17T00:21:30;176.60;;;102.73;;
20067;SDS011;10194;50.824;7.134;2022-10-17T00:23:56;175.17;;;102.93;;
20067;SDS011;10194;50.824;7.134;2022-10-17T00:26:23;172.33;;;101.33;;
20067;SDS011;10194;50.824;7.134;2022-10-17T00:28:50;171.77;;;102.43;;
20067;SDS011;10194;50.824;7.134;2022-10-17T00:31:17;172.97;;;104.30;;
20067;SDS011;10194;50.824;7.134;2022-10-17T00:33:45;174.43;;;103.70;;
20067;SDS011;10194;50.824;7.134;2022-10-17T00:36:16;176.33;;;108.47;;
20067;SDS011;10194;50.824;7.134;2022-10-17T00:38:49;180.63;;;111.37;;
20067;SDS011;10194;50.824;7.134;2022-10-17T00:41:19;182.23;;;111.80;;
20067;SDS011;10194;50.824;7.134;2022-10-17T00:43:49;176.13;;;107.67;;
20067;SDS011;10194;50.824;7.134;2022-10-17T00:46:52;181.27;;;112.63;;
20067;SDS011;10194;50.824;7.134;2022-10-17T00:49:18;182.50;;;109.53;;
20067;SDS011;10194;50.824;7.134;2022-10-17T00:51:46;179.83;;;111.03;;
20067;SDS011;10194;50.824;7.134;2022-10-17T00:54:18;177.77;;;108.97;;
20067;SDS011;10194;50.824;7.134;2022-10-17T00:56:48;173.87;;;103.87;;
20067;SDS011;10194;50.824;7.134;2022-10-17T00:59:15;179.67;;;112.03;;
20067;SDS011;10194;50.824;7.134;2022-10-17T01:01:47;182.30;;;113.33;;
20067;SDS011;10194;50.824;7.134;2022-10-17T01:04:22;182.20;;;117.67;;
20067;SDS011;10194;50.824;7.134;2022-10-17T01:06:48;179.53;;;114.43;;
20067;SDS011;10194;50.824;7.134;2022-10-17T01:09:14;181.17;;;113.23;;
20067;SDS011;10194;50.824;7.134;2022-10-17T01:11:44;180.93;;;112.50;;
20067;SDS011;10194;50.824;7.134;2022-10-17T01:23:37;192.57;;;124.63;;
20067;SDS011;10194;50.824;7.134;2022-10-17T01:32:18;187.23;;;122.03;;
20067;SDS011;10194;50.824;7.134;2022-10-17T01:35:14;184.83;;;122.97;;
20067;SDS011;10194;50.824;7.134;2022-10-17T01:43:28;190.20;;;123.90;;
20067;SDS011;10194;50.824;7.134;2022-10-17T01:49:25;187.70;;;128.63;;
20067;SDS011;10194;50.824;7.134;2022-10-17T01:52:03;184.10;;;123.47;;
20067;SDS011;10194;50.824;7.134;2022-10-17T01:54:51;185.73;;;123.77;;
20067;SDS011;10194;50.824;7.134;2022-10-17T01:59:59;184.50;;;121.33;;
20067;SDS011;10194;50.824;7.134;2022-10-17T02:02:28;184.03;;;120.83;;
20067;SDS011;10194;50.824;7.134;2022-10-17T02:04:56;185.77;;;120.93;;
20067;SDS011;10194;50.824;7.134;2022-10-17T02:07:22;185.60;;;121.83;;
20067;SDS011;10194;50.824;7.134;2022-10-17T02:09:48;181.53;;;114.50;;
20067;SDS011;10194;50.824;7.134;2022-10-17T02:23:25;183.43;;;121.40;;
20067;SDS011;10194;50.824;7.134;2022-10-17T02:26:06;187.47;;;126.27;;
20067;SDS011;10194;50.824;7.134;2022-10-17T02:31:29;182.63;;;118.60;;
20067;SDS011;10194;50.824;7.134;2022-10-17T02:34:07;187.63;;;121.23;;
20067;SDS011;10194;50.824;7.134;2022-10-17T02:36:48;181.50;;;117.20;;
20067;SDS011;10194;50.824;7.134;2022-10-17T02:39:19;184.70;;;119.93;;
20067;SDS011;10194;50.824;7.134;2022-10-17T02:41:48;181.30;;;120.00;;
20067;SDS011;10194;50.824;7.134;2022-10-17T02:44:15;182.83;;;118.87;;
20067;SDS011;10194;50.824;7.134;2022-10-17T02:46:42;182.67;;;122.37;;
20067;SDS011;10194;50.824;7.134;2022-10-17T02:49:17;185.07;;;120.47;;
20067;SDS011;10194;50.824;7.134;2022-10-17T02:59:46;189.07;;;126.63;;
20067;SDS011;10194;50.824;7.134;2022-10-17T03:02:14;186.83;;;123.53;;
20067;SDS011;10194;50.824;7.134;2022-10-17T03:04:43;188.67;;;126.73;;
20067;SDS011;10194;50.824;7.134;2022-10-17T03:07:10;187.27;;;123.80;;
20067;SDS011;10194;50.824;7.134;2022-10-17T03:09:37;189.07;;;125.60;;
20067;SDS011;10194;50.824;7.134;2022-10-17T03:12:02;184.53;;;119.63;;
20067;SDS011;10194;50.824;7.134;2022-10-17T03:14:29;190.50;;;123.47;;
20067;SDS011;10194;50.824;7.134;2022-10-17T03:16:55;189.07;;;120.67;;
20067;SDS011;10194;50.824;7.134;2022-10-17T03:19:20;183.77;;;117.43;;
20067;SDS011;10194;50.824;7.134;2022-10-17T03:21:46;184.10;;;116.33;;
20067;SDS011;10194;50.824;7.134;2022-10-17T03:24:12;179.00;;;110.43;;
20067;SDS011;10194;50.824;7.134;2022-10-17T03:26:38;177.43;;;108.90;;
20067;SDS011;10194;50.824;7.134;2022-10-17T03:29:03;180.33;;;108.77;;
20067;SDS011;10194;50.824;7.134;2022-10-17T03:31:29;179.50;;;109.13;;
20067;SDS011;10194;50.824;7.134;2022-10-17T03:33:55;182.03;;;109.83;;
20067;SDS011;10194;50.824;7.134;2022-10-17T03:36:21;177.73;;;110.23;;
20067;SDS011;10194;50.824;7.134;2022-10-17T03:38:46;175.57;;;107.37;;
20067;SDS011;10194;50.824;7.134;2022-10-17T03:41:12;185.40;;;111.37;;
20067;SDS011;10194;50.824;7.134;2022-10-17T03:43:38;177.00;;;109.17;;
20067;SDS011;10194;50.824;7.134;2022-10-17T03:46:05;179.03;;;110.33;;
20067;SDS011;10194;50.824;7.134;2022-10-17T03:48:31;176.77;;;110.07;;
20067;SDS011;10194;50.824;7.134;2022-10-17T03:50:58;178.17;;;109.60;;
20067;SDS011;10194;50.824;7.134;2022-10-17T03:53:27;179.37;;;109.57;;
20067;SDS011;10194;50.824;7.134;2022-10-17T03:55:53;181.37;;;111.20;;
20067;SDS011;10194;50.824;7.134;2022-10-17T03:58:19;177.13;;;107.00;;
20067;SDS011;10194;50.824;7.134;2022-10-17T04:00:45;177.60;;;109.23;;
20067;SDS011;10194;50.824;7.134;2022-10-17T04:03:10;182.97;;;113.87;;
20067;SDS011;10194;50.824;7.134;2022-10-17T04:05:36;182.83;;;111.90;;
20067;SDS011;10194;50.824;7.134;2022-10-17T04:08:02;180.23;;;112.20;;
20067;SDS011;10194;50.824;7.134;2022-10-17T04:10:28;181.20;;;110.70;;
20067;SDS011;10194;50.824;7.134;2022-10-17T04:12:54;185.23;;;113.17;;
20067;SDS011;10194;50.824;7.134;2022-10-17T04:15:19;181.43;;;113.13;;
20067;SDS011;10194;50.824;7.134;2022-10-17T04:17:45;183.43;;;114.73;;
20067;SDS011;10194;50.824;7.134;2022-10-17T04:20:11;186.20;;;119.33;;
20067;SDS011;10194;50.824;7.134;2022-10-17T04:22:37;191.60;;;125.37;;
20067;SDS011;10194;50.824;7.134;2022-10-17T04:25:03;186.83;;;123.30;;
20067;SDS011;10194;50.824;7.134;2022-10-17T04:27:29;186.90;;;124.07;;
20067;SDS011;10194;50.824;7.134;2022-10-17T04:29:55;185.23;;;121.67;;
20067;SDS011;10194;50.824;7.134;2022-10-17T04:32:20;187.13;;;122.07;;
20067;SDS011;10194;50.824;7.134;2022-10-17T04:34:49;187.80;;;123.33;;
20067;SDS011;10194;50.824;7.134;2022-10-17T04:37:15;186.50;;;119.57;;
20067;SDS011;10194;50.824;7.134;2022-10-17T04:39:41;185.20;;;120.17;;
20067;SDS011;10194;50.824;7.134;2022-10-17T04:42:07;185.37;;;120.60;;
20067;SDS011;10194;50.824;7.134;2022-10-17T04:44:32;187.03;;;123.17;;
20067;SDS011;10194;50.824;7.134;2022-10-17T04:46:59;191.67;;;127.33;;
20067;SDS011;10194;50.824;7.134;2022-10-17T04:49:25;190.20;;;128.10;;
20067;SDS011;10194;50.824;7.134;2022-10-17T04:51:51;193.70;;;127.67;;
20067;SDS011;10194;50.824;7.134;2022-10-17T04:54:17;190.23;;;126.00;;
20067;SDS011;10194;50.824;7.134;2022-10-17T04:56:43;193.23;;;128.70;;
20067;SDS011;10194;50.824;7.134;2022-10-17T04:59:09;194.20;;;132.90;;
20067;SDS011;10194;50.824;7.134;2022-10-17T05:01:34;193.33;;;134.90;;
20067;SDS011;10194;50.824;7.134;2022-10-17T05:04:00;199.77;;;142.90;;
20067;SDS011;10194;50.824;7.134;2022-10-17T05:06:26;202.73;;;139.73;;
20067;SDS011;10194;50.824;7.134;2022-10-17T05:08:52;196.87;;;140.63;;
20067;SDS011;10194;50.824;7.134;2022-10-17T05:11:22;199.63;;;141.27;;
20067;SDS011;10194;50.824;7.134;2022-10-17T05:13:57;199.00;;;140.70;;
20067;SDS011;10194;50.824;7.134;2022-10-17T05:16:25;197.73;;;138.33;;
20067;SDS011;10194;50.824;7.134;2022-10-17T05:18:54;201.20;;;138.00;;
20067;SDS011;10194;50.824;7.134;2022-10-17T05:21:23;198.23;;;139.03;;
20067;SDS011;10194;50.824;7.134;2022-10-17T05:23:50;207.47;;;148.67;;
20067;SDS011;10194;50.824;7.134;2022-10-17T05:26:16;205.10;;;144.20;;
20067;SDS011;10194;50.824;7.134;2022-10-17T05:28:42;201.53;;;141.63;;
20067;SDS011;10194;50.824;7.134;2022-10-17T05:31:08;197.00;;;137.03;;
20067;SDS011;10194;50.824;7.134;2022-10-17T05:33:35;197.00;;;138.43;;
20067;SDS011;10194;50.824;7.134;2022-10-17T05:36:02;195.23;;;135.17;;
20067;SDS011;10194;50.824;7.134;2022-10-17T05:38:28;198.80;;;139.40;;
20067;SDS011;10194;50.824;7.134;2022-10-17T05:40:58;206.10;;;150.20;;
20067;SDS011;10194;50.824;7.134;2022-10-17T05:43:26;203.87;;;152.20;;
20067;SDS011;10194;50.824;7.134;2022-10-17T05:45:52;210.73;;;156.87;;
20067;SDS011;10194;50.824;7.134;2022-10-17T05:48:19;212.93;;;164.67;;
20067;SDS011;10194;50.824;7.134;2022-10-17T05:50:45;205.73;;;155.90;;
20067;SDS011;10194;50.824;7.134;2022-10-17T05:53:11;210.37;;;159.60;;
20067;SDS011;10194;50.824;7.134;2022-10-17T05:55:37;210.03;;;154.97;;
20067;SDS011;10194;50.824;7.134;2022-10-17T05:58:03;206.93;;;158.47;;
20067;SDS011;10194;50.824;7.134;2022-10-17T06:00:29;215.20;;;165.23;;
20067;SDS011;10194;50.824;7.134;2022-10-17T06:02:55;211.37;;;156.47;;
20067;SDS011;10194;50.824;7.134;2022-10-17T06:05:21;205.90;;;155.93;;
20067;SDS011;10194;50.824;7.134;2022-10-17T06:07:46;208.23;;;159.87;;
20067;SDS011;10194;50.824;7.134;2022-10-17T06:10:14;199.83;;;144.57;;
20067;SDS011;10194;50.824;7.134;2022-10-17T06:12:43;211.53;;;153.80;;
20067;SDS011;10194;50.824;7.134;2022-10-17T06:15:09;198.00;;;144.07;;
20067;SDS011;10194;50.824;7.134;2022-10-17T06:17:36;195.73;;;138.53;;
20067;SDS011;10194;50.824;7.134;2022-10-17T06:20:03;187.10;;;127.17;;
20067;SDS011;10194;50.824;7.134;2022-10-17T06:22:29;185.17;;;119.67;;
20067;SDS011;10194;50.824;7.134;2022-10-17T06:24:55;187.53;;;121.90;;
20067;SDS011;10194;50.824;7.134;2022-10-17T06:27:21;185.33;;;121.00;;
20067;SDS011;10194;50.824;7.134;2022-10-17T06:29:47;184.27;;;121.53;;
20067;SDS011;10194;50.824;7.134;2022-10-17T06:32:15;178.50;;;110.90;;
20067;SDS011;10194;50.824;7.134;2022-10-17T06:34:41;179.30;;;111.57;;
20067;SDS011;10194;50.824;7.134;2022-10-17T06:37:07;179.93;;;114.40;;
20067;SDS011;10194;50.824;7.134;2022-10-17T06:39:33;177.43;;;111.97;;
20067;SDS011;10194;50.824;7.134;2022-10-17T06:42:00;182.73;;;114.80;;
20067;SDS011;10194;50.824;7.134;2022-10-17T06:44:27;181.30;;;114.60;;
20067;SDS011;10194;50.824;7.134;2022-10-17T06:46:55;178.17;;;112.00;;
20067;SDS011;10194;50.824;7.134;2022-10-17T06:49:23;178.20;;;109.27;;
20067;SDS011;10194;50.824;7.134;2022-10-17T06:51:49;183.30;;;111.33;;
20067;SDS011;10194;50.824;7.134;2022-10-17T06:54:15;177.93;;;107.43;;
20067;SDS011;10194;50.824;7.134;2022-10-17T06:56:41;175.53;;;109.27;;
20067;SDS011;10194;50.824;7.134;2022-10-17T06:59:08;177.33;;;107.40;;
20067;SDS011;10194;50.824;7.134;2022-10-17T07:01:34;177.37;;;109.63;;
20067;SDS011;10194;50.824;7.134;2022-10-17T07:04:00;176.13;;;110.60;;
20067;SDS011;10194;50.824;7.134;2022-10-17T07:06:26;176.97;;;106.57;;
20067;SDS011;10194;50.824;7.134;2022-10-17T07:08:52;176.40;;;108.93;;
20067;SDS011;10194;50.824;7.134;2022-10-17T07:11:20;172.03;;;107.53;;
20067;SDS011;10194;50.824;7.134;2022-10-17T07:13:46;172.67;;;113.23;;
20067;SDS011;10194;50.824;7.134;2022-10-17T07:16:12;177.93;;;112.87;;
20067;SDS011;10194;50.824;7.134;2022-10-17T07:18:39;168.70;;;105.57;;
20067;SDS011;10194;50.824;7.134;2022-10-17T07:21:06;173.00;;;107.47;;
20067;SDS011;10194;50.824;7.134;2022-10-17T07:23:32;175.50;;;114.57;;
20067;SDS011;10194;50.824;7.134;2022-10-17T07:26:01;178.30;;;115.27;;
20067;SDS011;10194;50.824;7.134;2022-10-17T07:28:32;170.90;;;108.10;;
20067;SDS011;10194;50.824;7.134;2022-10-17T07:31:03;171.30;;;107.30;;
20067;SDS011;10194;50.824;7.134;2022-10-17T07:33:35;172.90;;;104.13;;
20067;SDS011;10194;50.824;7.134;2022-10-17T07:36:01;172.70;;;101.93;;
20067;SDS011;10194;50.824;7.134;2022-10-17T07:38:28;168.53;;;99.73;;
20067;SDS011;10194;50.824;7.134;2022-10-17T07:40:58;176.40;;;104.97;;
20067;SDS011;10194;50.824;7.134;2022-10-17T07:43:26;167.53;;;102.73;;
20067;SDS011;10194;50.824;7.134;2022-10-17T07:45:52;168.03;;;104.37;;
20067;SDS011;10194;50.824;7.134;2022-10-17T07:48:19;170.40;;;105.40;;
20067;SDS011;10194;50.824;7.134;2022-10-17T07:50:47;171.23;;;105.30;;
20067;SDS011;10194;50.824;7.134;2022-10-17T07:53:13;171.30;;;101.10;;
20067;SDS011;10194;50.824;7.134;2022-10-17T07:55:39;163.70;;;97.43;;
20067;SDS011;10194;50.824;7.134;2022-10-17T07:58:07;164.57;;;97.57;;
20067;SDS011;10194;50.824;7.134;2022-10-17T08:00:34;170.00;;;103.03;;
20067;SDS011;10194;50.824;7.134;2022-10-17T08:03:00;170.30;;;100.43;;
20067;SDS011;10194;50.824;7.134;2022-10-17T08:05:27;167.10;;;98.90;;
20067;SDS011;10194;50.824;7.134;2022-10-17T08:07:54;165.33;;;93.57;;
20067;SDS011;10194;50.824;7.134;2022-10-17T08:10:20;173.10;;;93.80;;
20067;SDS011;10194;50.824;7.134;2022-10-17T08:12:51;166.63;;;92.03;;
20067;SDS011;10194;50.824;7.134;2022-10-17T08:15:21;161.93;;;90.47;;
20067;SDS011;10194;50.824;7.134;2022-10-17T08:17:48;158.67;;;89.13;;
20067;SDS011;10194;50.824;7.134;2022-10-17T08:20:15;167.73;;;91.60;;
20067;SDS011;10194;50.824;7.134;2022-10-17T08:22:41;166.83;;;89.60;;
20067;SDS011;10194;50.824;7.134;2022-10-17T08:25:07;159.07;;;89.03;;
20067;SDS011;10194;50.824;7.134;2022-10-17T08:27:33;159.53;;;85.83;;
20067;SDS011;10194;50.824;7.134;2022-10-17T08:29:59;158.87;;;86.67;;
20067;SDS011;10194;50.824;7.134;2022-10-17T08:32:25;158.97;;;86.37;;
20067;SDS011;10194;50.824;7.134;2022-10-17T08:34:53;158.77;;;86.97;;
20067;SDS011;10194;50.824;7.134;2022-10-17T08:37:20;159.57;;;86.50;;
20067;SDS011;10194;50.824;7.134;2022-10-17T08:39:47;159.83;;;86.23;;
20067;SDS011;10194;50.824;7.134;2022-10-17T08:42:39;165.30;;;85.70;;
20067;SDS011;10194;50.824;7.134;2022-10-17T08:47:52;161.77;;;85.57;;
20067;SDS011;10194;50.824;7.134;2022-10-17T08:50:29;164.60;;;86.60;;
20067;SDS011;10194;50.824;7.134;2022-10-17T08:53:03;165.57;;;87.33;;
20067;SDS011;10194;50.824;7.134;2022-10-17T08:55:59;159.70;;;86.50;;
20067;SDS011;10194;50.824;7.134;2022-10-17T08:58:36;162.03;;;87.80;;
20067;SDS011;10194;50.824;7.134;2022-10-17T09:01:05;158.73;;;86.37;;
20067;SDS011;10194;50.824;7.134;2022-10-17T09:06:50;158.63;;;85.93;;
20067;SDS011;10194;50.824;7.134;2022-10-17T09:09:37;167.43;;;87.53;;
20067;SDS011;10194;50.824;7.134;2022-10-17T09:12:35;158.97;;;85.40;;
20067;SDS011;10194;50.824;7.134;2022-10-17T09:15:28;161.30;;;87.30;;
20067;SDS011;10194;50.824;7.134;2022-10-17T09:18:32;160.83;;;86.73;;
20067;SDS011;10194;50.824;7.134;2022-10-17T09:23:55;162.87;;;87.33;;
20067;SDS011;10194;50.824;7.134;2022-10-17T09:26:25;158.53;;;85.87;;
20067;SDS011;10194;50.824;7.134;2022-10-17T09:28:53;157.13;;;85.03;;
20067;SDS011;10194;50.824;7.134;2022-10-17T09:31:31;161.53;;;86.20;;
20067;SDS011;10194;50.824;7.134;2022-10-17T09:34:07;159.13;;;84.53;;
20067;SDS011;10194;50.824;7.134;2022-10-17T09:36:37;159.93;;;86.20;;
20067;SDS011;10194;50.824;7.134;2022-10-17T09:39:05;155.77;;;85.07;;
20067;SDS011;10194;50.824;7.134;2022-10-17T09:42:02;160.60;;;85.77;;
20067;SDS011;10194;50.824;7.134;2022-10-17T09:47:05;158.13;;;85.13;;
20067;SDS011;10194;50.824;7.134;2022-10-17T09:49:56;162.00;;;86.37;;
20067;SDS011;10194;50.824;7.134;2022-10-17T09:52:29;164.57;;;88.50;;
20067;SDS011;10194;50.824;7.134;2022-10-17T09:55:02;155.33;;;85.70;;
20067;SDS011;10194;50.824;7.134;2022-10-17T10:00:40;161.77;;;87.27;;
20067;SDS011;10194;50.824;7.134;2022-10-17T10:05:40;159.30;;;87.17;;
20067;SDS011;10194;50.824;7.134;2022-10-17T10:08:22;159.03;;;86.30;;
20067;SDS011;10194;50.824;7.134;2022-10-17T10:11:13;159.47;;;87.30;;
20067;SDS011;10194;50.824;7.134;2022-10-17T10:13:40;157.13;;;86.20;;
20067;SDS011;10194;50.824;7.134;2022-10-17T10:16:16;160.77;;;88.60;;
20067;SDS011;10194;50.824;7.134;2022-10-17T10:18:55;159.70;;;87.40;;
20067;SDS011;10194;50.824;7.134;2022-10-17T10:21:23;159.07;;;87.93;;
20067;SDS011;10194;50.824;7.134;2022-10-17T10:24:04;159.73;;;86.87;;
20067;SDS011;10194;50.824;7.134;2022-10-17T10:26:41;157.50;;;86.73;;
20067;SDS011;10194;50.824;7.134;2022-10-17T10:31:54;157.93;;;86.30;;
20067;SDS011;10194;50.824;7.134;2022-10-17T10:34:51;160.30;;;88.20;;
20067;SDS011;10194;50.824;7.134;2022-10-17T10:37:42;162.47;;;88.40;;
20067;SDS011;10194;50.824;7.134;2022-10-17T10:42:51;166.77;;;91.30;;
20067;SDS011;10194;50.824;7.134;2022-10-17T10:45:24;160.70;;;87.87;;
20067;SDS011;10194;50.824;7.134;2022-10-17T10:50:40;157.40;;;86.93;;
20067;SDS011;10194;50.824;7.134;2022-10-17T10:53:27;161.37;;;87.20;;
20067;SDS011;10194;50.824;7.134;2022-10-17T10:56:32;163.30;;;89.73;;
20067;SDS011;10194;50.824;7.134;2022-10-17T11:07:12;160.57;;;87.13;;
20067;SDS011;10194;50.824;7.134;2022-10-17T11:10:07;157.53;;;86.70;;
20067;SDS011;10194;50.824;7.134;2022-10-17T11:12:43;160.77;;;89.33;;
20067;SDS011;10194;50.824;7.134;2022-10-17T11:18:41;159.33;;;87.30;;
20067;SDS011;10194;50.824;7.134;2022-10-17T11:23:59;159.43;;;87.73;;
20067;SDS011;10194;50.824;7.134;2022-10-17T11:26:30;159.10;;;88.60;;
20067;SDS011;10194;50.824;7.134;2022-10-17T11:29:02;161.20;;;85.97;;
20067;SDS011;10194;50.824;7.134;2022-10-17T11:31:34;157.67;;;86.27;;
20067;SDS011;10194;50.824;7.134;2022-10-17T11:34:10;158.83;;;87.17;;
20067;SDS011;10194;50.824;7.134;2022-10-17T11:36:44;157.97;;;87.27;;
20067;SDS011;10194;50.824;7.134;2022-10-17T11:39:15;159.23;;;87.23;;
20067;SDS011;10194;50.824;7.134;2022-10-17T11:41:48;161.60;;;90.77;;
20067;SDS011;10194;50.824;7.134;2022-10-17T11:47:03;159.67;;;87.47;;
20067;SDS011;10194;50.824;7.134;2022-10-17T11:49:49;159.03;;;90.47;;
20067;SDS011;10194;50.824;7.134;2022-10-17T11:52:33;158.43;;;87.80;;
20067;SDS011;10194;50.824;7.134;2022-10-17T11:55:08;160.17;;;87.13;;
20067;SDS011;10194;50.824;7.134;2022-10-17T12:06:46;163.10;;;87.90;;
20067;SDS011;10194;50.824;7.134;2022-10-17T12:12:10;159.50;;;86.63;;
20067;SDS011;10194;50.824;7.134;2022-10-17T12:17:55;160.03;;;88.57;;
20067;SDS011;10194;50.824;7.134;2022-10-17T12:20:36;156.63;;;86.40;;
20067;SDS011;10194;50.824;7.134;2022-10-17T12:25:48;158.60;;;86.37;;
20067;SDS011;10194;50.824;7.134;2022-10-17T12:28:26;157.40;;;87.03;;
20067;SDS011;10194;50.824;7.134;2022-10-17T12:31:00;158.00;;;87.03;;
20067;SDS011;10194;50.824;7.134;2022-10-17T12:49:37;164.17;;;88.77;;
20067;SDS011;10194;50.824;7.134;2022-10-17T13:03:27;161.77;;;91.17;;
20067;SDS011;10194;50.824;7.134;2022-10-17T13:05:58;163.07;;;90.33;;
20067;SDS011;10194;50.824;7.134;2022-10-17T13:08:29;176.50;;;92.87;;
20067;SDS011;10194;50.824;7.134;2022-10-17T13:10:58;168.37;;;92.47;;
20067;SDS011;10194;50.824;7.134;2022-10-17T13:13:34;160.90;;;89.23;;
20067;SDS011;10194;50.824;7.134;2022-10-17T13:16:08;161.30;;;86.77;;
20067;SDS011;10194;50.824;7.134;2022-10-17T13:19:15;159.87;;;86.60;;
20067;SDS011;10194;50.824;7.134;2022-10-17T13:21:54;157.13;;;86.17;;
20067;SDS011;10194;50.824;7.134;2022-10-17T13:24:35;163.87;;;89.30;;
20067;SDS011;10194;50.824;7.134;2022-10-17T13:27:04;158.30;;;88.17;;
20067;SDS011;10194;50.824;7.134;2022-10-17T13:29:45;160.67;;;86.40;;
20067;SDS011;10194;50.824;7.134;2022-10-17T13:32:11;159.73;;;86.23;;
20067;SDS011;10194;50.824;7.134;2022-10-17T13:34:37;159.17;;;85.83;;
20067;SDS011;10194;50.824;7.134;2022-10-17T13:37:03;160.17;;;88.27;;
20067;SDS011;10194;50.824;7.134;2022-10-17T13:39:35;161.27;;;87.40;;
20067;SDS011;10194;50.824;7.134;2022-10-17T13:42:05;158.37;;;86.23;;
20067;SDS011;10194;50.824;7.134;2022-10-17T13:44:47;162.03;;;89.57;;
20067;SDS011;10194;50.824;7.134;2022-10-17T13:47:23;160.13;;;88.20;;
20067;SDS011;10194;50.824;7.134;2022-10-17T13:50:01;162.03;;;88.23;;
20067;SDS011;10194;50.824;7.134;2022-10-17T13:52:29;157.43;;;86.33;;
20067;SDS011;10194;50.824;7.134;2022-10-17T13:55:04;162.07;;;88.33;;
20067;SDS011;10194;50.824;7.134;2022-10-17T13:57:36;161.00;;;87.83;;
20067;SDS011;10194;50.824;7.134;2022-10-17T14:00:06;169.80;;;91.27;;
20067;SDS011;10194;50.824;7.134;2022-10-17T14:02:43;165.10;;;89.93;;
20067;SDS011;10194;50.824;7.134;2022-10-17T14:07:53;162.67;;;90.73;;
20067;SDS011;10194;50.824;7.134;2022-10-17T14:10:34;161.40;;;86.17;;
20067;SDS011;10194;50.824;7.134;2022-10-17T14:13:02;160.67;;;88.97;;
20067;SDS011;10194;50.824;7.134;2022-10-17T14:15:35;161.37;;;90.30;;
20067;SDS011;10194;50.824;7.134;2022-10-17T14:18:04;158.83;;;86.53;;
20067;SDS011;10194;50.824;7.134;2022-10-17T14:20:32;159.30;;;87.90;;
20067;SDS011;10194;50.824;7.134;2022-10-17T14:23:00;167.20;;;88.40;;
20067;SDS011;10194;50.824;7.134;2022-10-17T14:25:35;158.73;;;86.70;;
20067;SDS011;10194;50.824;7.134;2022-10-17T14:30:41;162.57;;;87.87;;
20067;SDS011;10194;50.824;7.134;2022-10-17T14:33:14;165.57;;;90.40;;
20067;SDS011;10194;50.824;7.134;2022-10-17T14:35:53;180.20;;;93.73;;
20067;SDS011;10194;50.824;7.134;2022-10-17T14:38:21;170.83;;;88.00;;
20067;SDS011;10194;50.824;7.134;2022-10-17T14:40:52;163.67;;;87.63;;
20067;SDS011;10194;50.824;7.134;2022-10-17T14:43:34;164.93;;;87.93;;
20067;SDS011;10194;50.824;7.134;2022-10-17T14:46:00;160.03;;;86.97;;
20067;SDS011;10194;50.824;7.134;2022-10-17T14:48:27;167.13;;;89.97;;
20067;SDS011;10194;50.824;7.134;2022-10-17T14:53:40;161.13;;;86.83;;
20067;SDS011;10194;50.824;7.134;2022-10-17T14:56:20;163.50;;;87.77;;
20067;SDS011;10194;50.824;7.134;2022-10-17T14:59:00;163.20;;;88.53;;
20067;SDS011;10194;50.824;7.134;2022-10-17T15:01:27;168.67;;;88.33;;
20067;SDS011;10194;50.824;7.134;2022-10-17T15:03:53;163.37;;;87.50;;
20067;SDS011;10194;50.824;7.134;2022-10-17T15:06:19;164.47;;;88.37;;
20067;SDS011;10194;50.824;7.134;2022-10-17T15:08:51;162.03;;;87.80;;
20067;SDS011;10194;50.824;7.134;2022-10-17T15:11:17;164.07;;;85.43;;
20067;SDS011;10194;50.824;7.134;2022-10-17T15:13:43;164.13;;;85.80;;
20067;SDS011;10194;50.824;7.134;2022-10-17T15:16:29;165.60;;;86.40;;
20067;SDS011;10194;50.824;7.134;2022-10-17T15:18:57;159.83;;;83.03;;
20067;SDS011;10194;50.824;7.134;2022-10-17T15:21:24;163.97;;;83.87;;
20067;SDS011;10194;50.824;7.134;2022-10-17T15:23:52;162.97;;;84.87;;
20067;SDS011;10194;50.824;7.134;2022-10-17T15:26:21;159.53;;;84.73;;
20067;SDS011;10194;50.824;7.134;2022-10-17T15:28:53;159.20;;;84.87;;
20067;SDS011;10194;50.824;7.134;2022-10-17T15:31:20;163.80;;;87.40;;
20067;SDS011;10194;50.824;7.134;2022-10-17T15:33:48;159.73;;;85.63;;
20067;SDS011;10194;50.824;7.134;2022-10-17T15:36:27;162.80;;;84.10;;
20067;SDS011;10194;50.824;7.134;2022-10-17T15:38:59;161.93;;;83.47;;
20067;SDS011;10194;50.824;7.134;2022-10-17T15:41:28;161.33;;;85.87;;
20067;SDS011;10194;50.824;7.134;2022-10-17T15:43:56;166.90;;;84.90;;
20067;SDS011;10194;50.824;7.134;2022-10-17T15:46:23;158.63;;;83.47;;
20067;SDS011;10194;50.824;7.134;2022-10-17T15:48:56;163.80;;;83.50;;
20067;SDS011;10194;50.824;7.134;2022-10-17T15:51:31;159.90;;;83.73;;
20067;SDS011;10194;50.824;7.134;2022-10-17T15:53:57;161.37;;;84.43;;
20067;SDS011;10194;50.824;7.134;2022-10-17T15:56:26;158.07;;;84.17;;
20067;SDS011;10194;50.824;7.134;2022-10-17T15:58:55;159.03;;;83.27;;
20067;SDS011;10194;50.824;7.134;2022-10-17T16:01:25;163.73;;;83.63;;
20067;SDS011;10194;50.824;7.134;2022-10-17T16:03:54;163.07;;;84.93;;
20067;SDS011;10194;50.824;7.134;2022-10-17T16:06:20;157.77;;;82.60;;
20067;SDS011;10194;50.824;7.134;2022-10-17T16:08:47;158.30;;;83.30;;
20067;SDS011;10194;50.824;7.134;2022-10-17T16:11:18;160.23;;;82.40;;
20067;SDS011;10194;50.824;7.134;2022-10-17T16:13:54;161.47;;;83.93;;
20067;SDS011;10194;50.824;7.134;2022-10-17T16:16:27;170.77;;;84.70;;
20067;SDS011;10194;50.824;7.134;2022-10-17T16:18:53;161.87;;;85.83;;
20067;SDS011;10194;50.824;7.134;2022-10-17T16:21:19;160.87;;;81.27;;
20067;SDS011;10194;50.824;7.134;2022-10-17T16:23:56;157.53;;;81.57;;
20067;SDS011;10194;50.824;7.134;2022-10-17T16:26:22;160.90;;;83.20;;
20067;SDS011;10194;50.824;7.134;2022-10-17T16:28:49;157.87;;;81.80;;
20067;SDS011;10194;50.824;7.134;2022-10-17T16:31:19;162.47;;;83.63;;
20067;SDS011;10194;50.824;7.134;2022-10-17T16:33:49;163.73;;;83.77;;
20067;SDS011;10194;50.824;7.134;2022-10-17T16:36:16;160.60;;;82.00;;
20067;SDS011;10194;50.824;7.134;2022-10-17T16:38:42;166.07;;;84.03;;
20067;SDS011;10194;50.824;7.134;2022-10-17T16:43:54;162.27;;;82.50;;
20067;SDS011;10194;50.824;7.134;2022-10-17T16:46:22;159.17;;;81.93;;
20067;SDS011;10194;50.824;7.134;2022-10-17T16:48:50;161.23;;;81.53;;
20067;SDS011;10194;50.824;7.134;2022-10-17T16:51:16;158.07;;;81.03;;